Time;durP1;ratioP1;P1;durP2;ratioP2;P2;SDS_P1;SDS_P2;PMS_P1;PMS_P2;Temp;Humidity;BMP_temperature;BMP_pressure;BME280_temperature;BME280_humidity;BME280_pressure;Samples;Min_cycle;Max_cycle;Signal;HPM_P1;HPM_P2
2023/05/10 00:00:32;;;;;;;16.60;12.70;;;;;;;15.22;100.00;100976.66;2112822;28;20043;-71
2023/05/10 00:01:55;;;;;;;17.02;12.65;;;;;;;15.22;100.00;100975.75;2110117;28;20043;-71
2023/05/10 00:03:18;;;;;;;17.65;11.82;;;;;;;15.19;100.00;100970.44;2112403;28;20411;-71
2023/05/10 00:04:41;;;;;;;17.38;12.07;;;;;;;15.18;100.00;100968.66;2110869;28;20043;-70
2023/05/10 00:06:03;;;;;;;16.58;12.77;;;;;;;15.19;100.00;100970.44;2103855;28;20059;-71
2023/05/10 00:07:25;;;;;;;20.30;13.07;;;;;;;15.18;100.00;100968.66;2107869;28;20078;-70
2023/05/10 00:08:47;;;;;;;18.27;12.65;;;;;;;15.20;100.00;100970.44;2108348;28;20528;-70
2023/05/10 00:10:09;;;;;;;18.38;13.60;;;;;;;15.22;100.00;100974.00;2102401;28;20551;-71
2023/05/10 00:11:31;;;;;;;;;;;;;;;15.20;100.00;100966.88;2102183;28;20059;-71
2023/05/10 00:12:52;;;;;;;20.55;13.77;;;;;;;15.19;100.00;100965.09;2108336;28;19938;-70
2023/05/10 00:14:14;;;;;;;17.60;13.18;;;;;;;15.19;100.00;100965.09;2109863;28;20039;-71
2023/05/10 00:15:35;;;;;;;18.27;12.40;;;;;;;15.17;100.00;100962.44;2108077;28;20051;-70
2023/05/10 00:16:58;;;;;;;17.42;11.45;;;;;;;15.16;100.00;100961.56;2102442;28;20043;-71
2023/05/10 00:18:21;;;;;;;20.45;13.20;;;;;;;15.13;100.00;100953.59;2109712;28;20465;-71
2023/05/10 00:19:43;;;;;;;15.55;12.40;;;;;;;15.06;100.00;100961.56;2110734;28;20130;-71
2023/05/10 00:21:06;;;;;;;16.75;12.88;;;;;;;15.05;100.00;100960.66;2103316;28;20052;-70
2023/05/10 00:22:29;;;;;;;16.48;12.65;;;;;;;15.04;100.00;100950.03;2104143;28;20048;-71
2023/05/10 00:23:51;;;;;;;17.70;12.75;;;;;;;15.06;100.00;100956.25;2102443;28;20044;-70
2023/05/10 00:25:14;;;;;;;19.50;13.77;;;;;;;15.06;100.00;100957.13;2108410;28;20054;-71
2023/05/10 00:26:35;;;;;;;17.73;12.93;;;;;;;15.07;100.00;100950.94;2113302;28;20035;-71
2023/05/10 00:27:58;;;;;;;21.38;15.10;;;;;;;15.07;100.00;100950.94;2102386;28;20059;-70
2023/05/10 00:29:19;;;;;;;20.20;14.68;;;;;;;15.08;100.00;100946.50;2099868;28;20048;-71
2023/05/10 00:30:41;;;;;;;17.20;14.45;;;;;;;15.09;100.00;100950.94;2099401;28;20074;-71
2023/05/10 00:32:03;;;;;;;21.23;14.70;;;;;;;15.08;100.00;100942.06;2107991;28;20403;-71
2023/05/10 00:33:27;;;;;;;19.58;14.02;;;;;;;15.09;100.00;100933.22;2096938;28;20139;-71
2023/05/10 00:34:48;;;;;;;20.35;14.35;;;;;;;15.07;100.00;100945.63;2099726;28;20048;-71
2023/05/10 00:36:11;;;;;;;21.90;14.73;;;;;;;15.09;100.00;100943.84;2102223;28;20399;-70
2023/05/10 00:37:34;;;;;;;18.60;13.80;;;;;;;15.06;100.00;100934.97;2094109;28;20033;-71
2023/05/10 00:38:56;;;;;;;19.88;13.45;;;;;;;15.01;100.00;100934.97;2099517;28;20135;-70
2023/05/10 00:40:18;;;;;;;18.73;13.32;;;;;;;14.98;100.00;100940.28;2104904;28;20491;-71
2023/05/10 00:41:44;;;;;;;18.67;14.43;;;;;;;14.96;100.00;100931.44;2111294;28;20097;-70
2023/05/10 00:43:06;;;;;;;22.00;15.52;;;;;;;14.96;100.00;100938.53;2103501;28;20123;-71
2023/05/10 00:44:30;;;;;;;21.15;14.45;;;;;;;14.97;100.00;100929.63;2099555;28;20109;-71
2023/05/10 00:45:52;;;;;;;24.38;14.93;;;;;;;14.99;100.00;100935.84;2102467;28;20044;-71
2023/05/10 00:47:15;;;;;;;21.80;15.18;;;;;;;15.01;100.00;100934.09;2108091;28;20040;-71
2023/05/10 00:48:40;;;;;;;20.90;15.20;;;;;;;15.02;100.00;100926.13;2096013;28;20052;-71
2023/05/10 00:50:01;;;;;;;20.67;14.45;;;;;;;15.01;100.00;100934.09;2102625;28;20040;-71
2023/05/10 00:51:24;;;;;;;22.73;15.45;;;;;;;15.00;100.00;100934.97;2102141;28;20043;-70
2023/05/10 00:52:45;;;;;;;22.52;14.77;;;;;;;14.97;100.00;100933.19;2102843;28;20515;-71
2023/05/10 00:54:08;;;;;;;20.55;13.82;;;;;;;14.95;100.00;100932.31;2109814;28;20044;-70
2023/05/10 00:55:30;;;;;;;18.83;14.05;;;;;;;14.92;100.00;100932.31;2108729;28;20140;-71
2023/05/10 00:56:52;;;;;;;22.60;15.13;;;;;;;14.88;100.00;100932.31;2111951;28;20055;-70
2023/05/10 00:58:16;;;;;;;19.65;14.30;;;;;;;14.82;100.00;100933.19;2109878;28;21875;-70
2023/05/10 00:59:37;;;;;;;23.98;15.23;;;;;;;14.77;100.00;100930.50;2112828;28;20043;-70
2023/05/10 01:01:01;;;;;;;22.75;14.68;;;;;;;14.79;100.00;100930.53;2109446;28;20055;-71
2023/05/10 01:02:23;;;;;;;24.70;15.57;;;;;;;14.79;100.00;100933.19;2102427;28;20048;-71
2023/05/10 01:03:47;;;;;;;21.17;15.05;;;;;;;14.81;100.00;100933.19;2101435;28;20492;-71
2023/05/10 01:05:09;;;;;;;23.33;14.80;;;;;;;14.80;100.00;100934.97;2098795;28;20055;-71
2023/05/10 01:06:30;;;;;;;19.02;14.90;;;;;;;14.81;100.00;100934.09;2099394;28;20040;-71
2023/05/10 01:07:53;;;;;;;18.58;14.93;;;;;;;14.84;100.00;100933.19;2107290;28;20051;-71
2023/05/10 01:09:14;;;;;;;21.02;13.85;;;;;;;14.85;100.00;100932.28;2109242;28;20044;-71
2023/05/10 01:10:36;;;;;;;21.33;15.07;;;;;;;14.87;100.00;100933.19;2101141;28;20040;-71
2023/05/10 01:12:00;;;;;;;18.77;13.23;;;;;;;14.88;100.00;100937.63;2107296;28;20055;-71
2023/05/10 01:13:34;;;;;;;18.88;13.73;;;;;;;14.89;100.00;100932.31;2100472;28;20040;-71
2023/05/10 01:14:57;;;;;;;20.95;13.80;;;;;;;14.90;100.00;100938.53;2110863;28;20054;-71
2023/05/10 01:16:19;;;;;;;18.88;13.32;;;;;;;14.93;100.00;100934.09;2110522;28;20051;-71
2023/05/10 01:17:44;;;;;;;20.58;13.70;;;;;;;14.96;100.00;100935.88;2101210;28;20040;-70
2023/05/10 01:19:17;;;;;;;21.45;15.00;;;;;;;14.97;100.00;100927.88;2098437;28;20076;-70
2023/05/10 01:20:48;;;;;;;19.08;14.13;;;;;;;14.99;100.00;100931.44;2101241;28;20480;-70
2023/05/10 01:22:26;;;;;;;20.50;13.73;;;;;;;14.98;100.00;100934.97;2109616;28;20050;-71
2023/05/10 01:24:33;;;;;;;19.13;14.27;;;;;;;14.94;100.00;100929.66;2112870;28;20050;-71
2023/05/10 01:26:13;;;;;;;22.55;16.00;;;;;;;14.89;100.00;100923.47;2070875;28;20072;-71
2023/05/10 01:28:24;;;;;;;23.02;15.30;;;;;;;14.90;100.00;100928.75;2103607;28;20048;-71
2023/05/10 01:30:08;;;;;;;23.45;14.85;;;;;;;14.90;100.00;100917.25;2078701;28;20053;-71
2023/05/10 01:31:43;;;;;;;21.77;14.38;;;;;;;14.84;100.00;100923.44;2113113;28;20514;-71
2023/05/10 01:33:14;;;;;;;22.48;15.98;;;;;;;14.73;100.00;100911.91;2103990;28;20389;-71
2023/05/10 01:34:43;;;;;;;21.05;14.57;;;;;;;14.65;100.00;100918.97;2110855;28;20043;-71
2023/05/10 01:36:09;;;;;;;21.88;15.73;;;;;;;14.57;100.00;100916.31;2104833;28;20062;-70
2023/05/10 01:37:42;;;;;;;27.15;16.05;;;;;;;14.51;100.00;100921.63;2095573;28;20570;-71
2023/05/10 01:39:12;;;;;;;24.45;15.30;;;;;;;14.46;100.00;100922.50;2098666;28;20044;-70
2023/05/10 01:40:39;;;;;;;21.92;15.13;;;;;;;14.44;100.00;100922.47;2110016;28;20043;-71
2023/05/10 01:42:09;;;;;;;22.98;15.30;;;;;;;14.45;100.00;100923.38;2111901;28;20523;-70
2023/05/10 01:43:34;;;;;;;24.95;15.43;;;;;;;14.47;100.00;100930.47;2109906;28;20062;-71
2023/05/10 01:45:02;;;;;;;24.60;16.15;;;;;;;14.53;100.00;100929.59;2102005;28;20040;-70
2023/05/10 01:46:29;;;;;;;23.60;15.50;;;;;;;14.61;100.00;100933.16;2113317;28;20514;-71
2023/05/10 01:48:00;;;;;;;19.70;15.02;;;;;;;14.69;100.00;100937.63;2111699;28;20411;-71
2023/05/10 01:49:26;;;;;;;21.60;15.32;;;;;;;14.76;100.00;100938.50;2111323;28;20047;-71
2023/05/10 01:50:52;;;;;;;21.75;13.98;;;;;;;14.80;100.00;100936.72;2111081;28;20047;-71
2023/05/10 01:52:19;;;;;;;20.63;14.38;;;;;;;14.82;100.00;100933.19;2105231;28;20067;-71
2023/05/10 01:53:42;;;;;;;20.85;14.32;;;;;;;14.85;100.00;100935.84;2101755;28;20071;-71
2023/05/10 01:55:09;;;;;;;19.35;15.75;;;;;;;14.88;100.00;100935.88;2108068;28;20051;-71
2023/05/10 01:56:35;;;;;;;18.60;14.50;;;;;;;14.92;100.00;100940.28;2110809;28;20073;-71
2023/05/10 01:58:04;;;;;;;21.50;15.35;;;;;;;14.96;100.00;100936.75;2094143;28;20078;-70
2023/05/10 01:59:30;;;;;;;24.38;16.58;;;;;;;14.97;100.00;100927.88;2101224;28;20044;-71
2023/05/10 02:00:54;;;;;;;21.55;15.27;;;;;;;14.98;100.00;100932.31;2100573;28;20048;-71
2023/05/10 02:02:17;;;;;;;22.23;16.23;;;;;;;15.02;100.00;100942.06;2107625;28;20567;-70
2023/05/10 02:03:43;;;;;;;23.98;17.00;;;;;;;15.07;100.00;100944.72;2104010;28;20133;-70
2023/05/10 02:05:08;;;;;;;24.02;16.10;;;;;;;15.11;100.00;100942.06;2100251;28;20487;-70
2023/05/10 02:06:33;;;;;;;23.73;17.15;;;;;;;15.16;100.00;100940.28;2100660;28;20460;-70
2023/05/10 02:07:56;;;;;;;25.25;17.10;;;;;;;15.18;100.00;100942.94;2093581;28;20409;-70
2023/05/10 02:09:19;;;;;;;22.70;15.65;;;;;;;15.22;100.00;100941.19;2107868;28;20056;-70
2023/05/10 02:10:43;;;;;;;24.50;15.20;;;;;;;15.23;100.00;100933.19;2101870;28;20105;-71
2023/05/10 02:12:06;;;;;;;21.65;14.25;;;;;;;15.26;100.00;100935.84;2109070;28;20048;-70
2023/05/10 02:13:30;;;;;;;20.98;14.90;;;;;;;15.29;100.00;100929.66;2101863;28;20134;-70
2023/05/10 02:14:54;;;;;;;22.85;14.85;;;;;;;15.30;100.00;100936.72;2103403;28;20110;-70
2023/05/10 02:16:19;;;;;;;21.55;14.13;;;;;;;15.28;100.00;100933.19;2101358;28;20582;-70
2023/05/10 02:17:42;;;;;;;23.10;14.88;;;;;;;15.26;100.00;100934.97;2103760;28;20040;-70
2023/05/10 02:19:06;;;;;;;23.92;15.18;;;;;;;15.28;100.00;100934.09;2103341;28;20058;-70
2023/05/10 02:20:32;;;;;;;20.98;14.85;;;;;;;15.31;100.00;100933.19;2109259;28;20077;-70
2023/05/10 02:21:56;;;;;;;24.27;15.00;;;;;;;15.33;100.00;100934.06;2112431;28;20039;-70
2023/05/10 02:23:21;;;;;;;20.77;15.02;;;;;;;15.33;100.00;100931.41;2105339;28;20052;-70
2023/05/10 02:24:43;;;;;;;20.77;15.32;;;;;;;15.34;100.00;100933.19;2093151;28;20044;-70
2023/05/10 02:26:08;;;;;;;21.85;15.27;;;;;;;15.37;100.00;100938.50;2101173;28;20052;-70
2023/05/10 02:27:30;;;;;;;23.67;15.98;;;;;;;15.37;100.00;100938.50;2103524;28;20048;-70
2023/05/10 02:28:54;;;;;;;21.67;16.17;;;;;;;15.40;100.00;100936.72;2095285;28;20051;-70
2023/05/10 02:30:19;;;;;;;24.13;15.95;;;;;;;15.41;100.00;100935.84;2103862;28;20083;-70
2023/05/10 02:31:43;;;;;;;26.63;15.73;;;;;;;15.43;100.00;100936.72;2104859;28;20105;-70
2023/05/10 02:33:06;;;;;;;20.55;15.63;;;;;;;15.44;100.00;100934.94;2112301;28;20039;-70
2023/05/10 02:34:28;;;;;;;22.95;15.35;;;;;;;15.45;100.00;100937.59;2111858;28;20495;-71
2023/05/10 02:35:53;;;;;;;20.50;15.00;;;;;;;15.45;100.00;100937.59;2111665;28;20105;-70
2023/05/10 02:37:16;;;;;;;21.55;15.23;;;;;;;15.44;100.00;100935.81;2111927;28;20722;-70
2023/05/10 02:38:40;;;;;;;21.85;15.05;;;;;;;15.42;100.00;100929.66;2112087;28;20199;-71
2023/05/10 02:40:03;;;;;;;20.08;14.05;;;;;;;15.36;100.00;100934.94;2103422;28;20048;-70
2023/05/10 02:41:27;;;;;;;17.63;14.25;;;;;;;15.30;100.00;100931.41;2109394;28;20051;-70
2023/05/10 02:42:52;;;;;;;26.00;16.08;;;;;;;15.24;100.00;100937.63;2106035;28;20121;-70
2023/05/10 02:44:16;;;;;;;24.33;15.60;;;;;;;15.20;100.00;100933.19;2105287;28;20048;-70
2023/05/10 02:45:39;;;;;;;20.75;15.60;;;;;;;15.19;100.00;100933.19;2102237;28;20044;-70
2023/05/10 02:47:02;;;;;;;18.88;15.00;;;;;;;15.20;100.00;100948.28;2110753;28;20090;-70
2023/05/10 02:48:24;;;;;;;23.23;15.68;;;;;;;15.21;100.00;100942.97;2101831;28;20435;-70
2023/05/10 02:49:47;;;;;;;25.25;15.95;;;;;;;15.22;100.00;100938.53;2104894;28;20634;-70
2023/05/10 02:51:17;;;;;;;22.02;16.08;;;;;;;15.23;100.00;100933.19;2100210;28;20108;-69
2023/05/10 02:52:42;;;;;;;20.95;15.88;;;;;;;15.25;100.00;100933.19;2111631;28;20492;-70
2023/05/10 02:54:12;;;;;;;21.27;14.98;;;;;;;15.31;100.00;100943.81;2110533;27;20056;-70
2023/05/10 02:55:38;;;;;;;23.38;15.10;;;;;;;15.36;100.00;100944.72;2114048;28;20051;-70
2023/05/10 02:57:02;;;;;;;17.77;13.93;;;;;;;15.42;100.00;100944.72;2105723;28;20044;-70
2023/05/10 02:58:23;;;;;;;18.23;13.75;;;;;;;15.45;100.00;100944.69;2108144;28;20039;-70
2023/05/10 02:59:46;;;;;;;21.08;14.82;;;;;;;15.46;100.00;100943.81;2103101;28;20051;-70
2023/05/10 03:01:09;;;;;;;22.38;16.05;;;;;;;15.47;100.00;100956.22;2103154;28;20048;-70
2023/05/10 03:02:30;;;;;;;20.05;14.27;;;;;;;15.49;100.00;100954.47;2102135;28;20135;-70
2023/05/10 03:03:53;;;;;;;18.58;14.90;;;;;;;15.51;100.00;100963.31;2103154;28;20494;-70
2023/05/10 03:05:14;;;;;;;21.27;15.50;;;;;;;15.52;100.00;100954.44;2101088;28;20063;-70
2023/05/10 03:06:38;;;;;;;19.88;14.52;;;;;;;15.50;100.00;100966.84;2095971;28;20040;-71
2023/05/10 03:08:03;;;;;;;20.15;15.13;;;;;;;15.50;100.00;100965.09;2102425;28;20044;-70
2023/05/10 03:09:26;;;;;;;23.05;14.98;;;;;;;15.52;100.00;100962.44;2099183;28;20071;-70
2023/05/10 03:10:55;;;;;;;19.92;14.68;;;;;;;15.54;100.00;100969.56;2100392;28;20064;-70
2023/05/10 03:12:28;;;;;;;22.80;15.55;;;;;;;15.57;100.00;100973.09;2104369;28;20093;-70
2023/05/10 03:14:03;;;;;;;19.95;14.77;;;;;;;15.58;100.00;100978.41;2109020;28;20052;-70
2023/05/10 03:15:36;;;;;;;21.75;15.70;;;;;;;15.57;100.00;100981.97;2103736;28;20075;-70
2023/05/10 03:17:05;;;;;;;28.50;17.02;;;;;;;15.54;100.00;100979.31;2104600;28;20074;-70
2023/05/10 03:18:35;;;;;;;25.60;15.77;;;;;;;15.53;100.00;100982.88;2108146;28;20426;-70
2023/05/10 03:20:04;;;;;;;21.90;15.88;;;;;;;15.49;100.00;100986.41;2103444;28;20374;-70
2023/05/10 03:21:29;;;;;;;22.95;15.85;;;;;;;15.47;100.00;100982.84;2109134;28;20656;-70
2023/05/10 03:23:01;;;;;;;22.70;16.90;;;;;;;15.47;100.00;100989.06;2100930;28;20593;-70
2023/05/10 03:24:28;;;;;;;22.85;16.20;;;;;;;15.48;100.00;100981.97;2108340;28;20133;-70
2023/05/10 03:25:53;;;;;;;25.15;18.15;;;;;;;15.47;100.00;100990.81;2103351;28;20048;-71
2023/05/10 03:27:15;;;;;;;24.60;17.45;;;;;;;15.46;100.00;100989.03;2107644;28;20072;-70
2023/05/10 03:28:38;;;;;;;27.33;19.15;;;;;;;15.43;100.00;100981.94;2102247;28;20048;-70
2023/05/10 03:30:01;;;;;;;25.13;17.83;;;;;;;15.42;100.00;100985.50;2099464;28;20535;-70
2023/05/10 03:31:26;;;;;;;27.63;18.65;;;;;;;15.40;100.00;100984.63;2103371;28;20051;-70
2023/05/10 03:32:47;;;;;;;29.98;23.02;;;;;;;15.38;100.00;100982.84;2098713;28;20101;-70
2023/05/10 03:34:11;;;;;;;31.38;26.33;;;;;;;15.35;100.00;100990.84;2102669;28;20129;-70
2023/05/10 03:35:32;;;;;;;33.83;28.40;;;;;;;15.34;100.00;101003.25;2104039;28;20090;-70
2023/05/10 03:36:55;;;;;;;34.42;25.25;;;;;;;15.34;100.00;101005.00;2108441;28;20055;-71
2023/05/10 03:38:19;;;;;;;32.10;26.42;;;;;;;15.32;100.00;101004.13;2102763;28;20055;-70
2023/05/10 03:39:40;;;;;;;30.85;27.45;;;;;;;15.34;100.00;101010.34;2099749;28;20044;-70
2023/05/10 03:41:05;;;;;;;31.50;24.05;;;;;;;15.35;100.00;101009.44;2098969;28;20048;-70
2023/05/10 03:42:29;;;;;;;30.17;25.33;;;;;;;15.38;100.00;101012.09;2096819;28;20048;-70
2023/05/10 03:43:51;;;;;;;27.77;20.85;;;;;;;15.41;100.00;101009.44;2108799;28;20044;-70
2023/05/10 03:45:12;;;;;;;27.27;22.67;;;;;;;15.44;100.00;101014.75;2100910;28;20145;-70
2023/05/10 03:46:35;;;;;;;28.88;22.77;;;;;;;15.47;100.00;101018.31;2099379;28;20074;-70
2023/05/10 03:47:58;;;;;;;26.58;20.05;;;;;;;15.50;100.00;101022.72;2100400;28;20048;-70
2023/05/10 03:49:20;;;;;;;;;;;;;;;15.50;100.00;101026.28;2090373;28;20052;-70
2023/05/10 03:50:42;;;;;;;24.85;19.17;;;;;;;15.50;100.00;101023.63;2097651;28;20368;-70
2023/05/10 03:52:05;;;;;;;25.08;18.00;;;;;;;15.53;100.00;101020.13;2103054;28;20142;-70
2023/05/10 03:53:28;;;;;;;22.15;17.30;;;;;;;15.57;100.00;101021.88;2096979;28;20142;-70
2023/05/10 03:54:50;;;;;;;24.55;16.42;;;;;;;15.60;100.00;101018.34;2099400;28;20503;-70
2023/05/10 03:56:12;;;;;;;21.45;16.00;;;;;;;15.63;100.00;101026.31;2098970;28;20109;-70
2023/05/10 03:57:34;;;;;;;22.33;16.20;;;;;;;15.65;100.00;101021.88;2110137;28;20108;-70
2023/05/10 03:58:56;;;;;;;21.90;15.82;;;;;;;15.66;100.00;101029.88;2106411;28;20135;-70
2023/05/10 04:00:18;;;;;;;22.92;17.67;;;;;;;15.69;100.00;101019.19;2100605;28;20036;-70
2023/05/10 04:01:43;;;;;;;26.33;18.05;;;;;;;15.72;100.00;101020.97;2099608;28;20040;-70
2023/05/10 04:03:06;;;;;;;25.15;18.30;;;;;;;15.78;100.00;101026.28;2110066;27;20063;-70
2023/05/10 04:04:27;;;;;;;25.45;17.60;;;;;;;15.83;100.00;101032.50;2102848;28;20138;-70
2023/05/10 04:05:50;;;;;;;23.48;16.33;;;;;;;15.86;100.00;101028.06;2098242;28;20036;-70
2023/05/10 04:07:11;;;;;;;21.13;15.77;;;;;;;15.91;100.00;101031.59;2108468;28;20051;-70
2023/05/10 04:08:35;;;;;;;26.77;16.15;;;;;;;15.97;100.00;101037.78;2099881;28;20068;-70
2023/05/10 04:09:56;;;;;;;25.85;18.83;;;;;;;16.02;100.00;101033.34;2100059;28;20609;-70
2023/05/10 04:11:21;;;;;;;23.65;17.38;;;;;;;16.08;100.00;101041.34;2096597;28;20047;-70
2023/05/10 04:12:42;;;;;;;25.15;17.38;;;;;;;16.11;100.00;101041.31;2115992;27;20059;-70
2023/05/10 04:14:05;;;;;;;25.38;17.40;;;;;;;16.13;100.00;101051.09;2113580;28;20054;-70
2023/05/10 04:15:26;;;;;;;31.35;20.17;;;;;;;16.16;100.00;101058.16;2113175;28;20048;-70
2023/05/10 04:16:48;;;;;;;28.17;19.95;;;;;;;16.19;100.00;101059.06;2110900;28;20046;-71
2023/05/10 04:18:11;;;;;;;31.77;19.20;;;;;;;16.24;100.00;101059.94;2110649;28;20077;-70
2023/05/10 04:19:32;;;;;;;28.75;19.08;;;;;;;16.30;100.00;101065.25;2111369;28;20047;-70
2023/05/10 04:20:55;;;;;;;23.67;18.10;;;;;;;16.37;100.00;101066.09;2110093;28;20300;-70
2023/05/10 04:22:17;;;;;;;27.27;19.13;;;;;;;16.43;100.00;101068.75;2113579;28;20511;-71
2023/05/10 04:23:43;;;;;;;25.77;17.23;;;;;;;16.50;100.00;101067.84;2104608;28;20036;-70
2023/05/10 04:25:06;;;;;;;25.35;17.75;;;;;;;16.59;100.00;101073.16;2108487;28;20049;-70
2023/05/10 04:26:29;;;;;;;22.42;16.70;;;;;;;16.67;100.00;101073.16;2102774;28;20048;-70
2023/05/10 04:27:51;;;;;;;21.38;15.52;;;;;;;16.76;100.00;101075.75;2108361;28;20066;-70
2023/05/10 04:29:13;;;;;;;18.48;15.23;;;;;;;16.87;100.00;101073.06;2110043;28;20059;-71
2023/05/10 04:30:35;;;;;;;19.48;13.82;;;;;;;16.95;100.00;101080.09;2110053;28;20047;-71
2023/05/10 04:31:56;;;;;;;20.00;15.18;;;;;;;17.02;100.00;101078.28;2104070;28;20055;-71
2023/05/10 04:33:18;;;;;;;22.65;16.27;;;;;;;17.10;100.00;101073.81;2110568;28;20567;-71
2023/05/10 04:34:41;;;;;;;21.77;14.88;;;;;;;17.18;100.00;101071.97;2101751;27;20411;-70
2023/05/10 04:36:02;;;;;;;25.15;14.77;;;;;;;17.28;100.00;101070.13;2111307;28;20561;-71
2023/05/10 04:37:25;;;;;;;22.92;15.50;;;;;;;17.36;100.00;101078.97;2110480;27;20071;-71
2023/05/10 04:38:49;;;;;;;21.70;15.45;;;;;;;17.45;100.00;101081.56;2096951;28;20047;-71
2023/05/10 04:40:13;;;;;;;26.02;14.95;;;;;;;17.54;100.00;101084.16;2107424;28;20056;-71
2023/05/10 04:41:34;;;;;;;26.33;15.18;;;;;;;17.64;100.00;101082.34;2109954;27;20051;-71
2023/05/10 04:42:57;;;;;;;24.00;14.75;;;;;;;17.75;100.00;101084.03;2109553;28;20048;-71
2023/05/10 04:44:19;;;;;;;23.95;14.23;;;;;;;17.84;100.00;101083.97;2110418;28;20499;-71
2023/05/10 04:45:40;;;;;;;22.98;15.15;;;;;;;17.92;100.00;101081.19;2111441;27;20127;-71
2023/05/10 04:47:03;;;;;;;21.40;14.57;;;;;;;17.99;100.00;101066.88;2107621;28;20147;-71
2023/05/10 04:48:26;;;;;;;22.17;14.52;;;;;;;18.06;100.00;101073.94;2090256;28;20052;-71
2023/05/10 04:49:48;;;;;;;25.00;15.18;;;;;;;18.11;100.00;101077.47;2103532;27;20040;-71
2023/05/10 04:51:10;;;;;;;23.55;15.10;;;;;;;18.15;100.00;101080.97;2110277;28;20043;-70
2023/05/10 04:52:32;;;;;;;27.52;15.00;;;;;;;18.21;100.00;101087.13;2110000;28;20076;-71
2023/05/10 04:53:55;;;;;;;24.63;14.50;;;;;;;18.29;100.00;101079.03;2109083;27;20058;-71
2023/05/10 04:55:18;;;;;;;26.00;13.27;;;;;;;18.31;100.00;101080.78;2118921;27;20077;-71
2023/05/10 04:56:40;;;;;;;26.35;14.40;;;;;;;18.32;100.00;101069.19;2102650;28;20047;-70
2023/05/10 04:58:02;;;;;;;22.17;13.82;;;;;;;18.34;100.00;101069.19;2106282;28;20416;-71
2023/05/10 04:59:25;;;;;;;23.83;13.48;;;;;;;18.34;100.00;101069.19;2110853;28;20047;-71
2023/05/10 05:00:48;;;;;;;27.50;14.80;;;;;;;18.31;100.00;101063.88;2109641;28;20145;-70
2023/05/10 05:02:10;;;;;;;26.85;13.05;;;;;;;18.30;100.00;101071.03;2113999;27;20066;-70
2023/05/10 05:03:32;;;;;;;23.17;13.07;;;;;;;18.27;100.00;101063.03;2110641;28;20488;-71
2023/05/10 05:04:57;;;;;;;24.13;12.63;;;;;;;18.25;100.00;101063.94;2096272;28;20059;-71
2023/05/10 05:06:20;;;;;;;26.38;12.93;;;;;;;18.23;100.00;101060.41;2102519;28;20046;-71
2023/05/10 05:07:43;;;;;;;24.38;12.90;;;;;;;18.23;100.00;101055.06;2108288;28;20491;-71
2023/05/10 05:09:05;;;;;;;26.27;13.43;;;;;;;18.27;100.00;101056.78;2110761;28;20047;-71
2023/05/10 05:10:28;;;;;;;26.38;12.68;;;;;;;18.32;100.00;101060.28;2112783;28;20055;-71
2023/05/10 05:11:50;;;;;;;26.55;11.68;;;;;;;18.39;100.00;101066.44;2106493;28;20116;-71
2023/05/10 05:13:12;;;;;;;22.98;11.02;;;;;;;18.46;100.00;101058.34;2109175;27;20051;-71
2023/05/10 05:14:35;;;;;;;18.00;10.32;;;;;;;18.55;100.00;101050.25;2109858;28;20132;-71
2023/05/10 05:15:56;;;;;;;20.77;10.77;;;;;;;18.65;100.00;101046.53;2101803;28;20082;-71
2023/05/10 05:17:18;;;;;;;20.45;10.80;;;;;;;18.72;100.00;101047.34;2110233;28;20075;-72
2023/05/10 05:18:40;;;;;;;24.05;11.07;;;;;;;18.79;100.00;101048.16;2110576;28;20039;-71
2023/05/10 05:20:02;;;;;;;24.45;9.65;;;;;;;18.85;100.00;101054.31;2109316;28;20047;-71
2023/05/10 05:21:26;;;;;;;17.80;9.73;;;;;;;18.90;100.00;101056.94;2110332;28;20043;-71
2023/05/10 05:22:49;;;;;;;22.15;10.13;;;;;;;19.01;100.00;101050.53;2109954;28;20126;-71
2023/05/10 05:24:13;;;;;;;21.40;9.18;;;;;;;19.20;100.00;101047.56;2110442;28;20051;-71
2023/05/10 05:25:36;;;;;;;21.83;8.52;;;;;;;19.39;100.00;101054.41;2102395;28;20075;-71
2023/05/10 05:26:59;;;;;;;21.63;8.77;;;;;;;19.59;100.00;101052.31;2109288;28;20053;-71
2023/05/10 05:28:22;;;;;;;17.92;7.95;;;;;;;19.75;100.00;101052.97;2109668;28;20040;-71
2023/05/10 05:29:45;;;;;;;23.38;7.43;;;;;;;19.81;100.00;101047.50;2101917;28;20048;-71
2023/05/10 05:31:07;;;;;;;19.27;7.35;;;;;;;19.81;100.00;101034.97;2107832;28;20063;-72
2023/05/10 05:32:29;;;;;;;21.17;8.68;;;;;;;19.83;100.00;101035.81;2108913;28;20102;-71
2023/05/10 05:33:51;;;;;;;20.25;8.13;;;;;;;19.89;100.00;101033.03;2110303;28;20094;-72
2023/05/10 05:35:14;;;;;;;17.00;7.88;;;;;;;19.93;100.00;101033.88;2111794;28;20043;-71
2023/05/10 05:36:39;;;;;;;20.13;8.13;;;;;;;19.89;100.00;101033.03;2110333;28;20700;-72
2023/05/10 05:38:01;;;;;;;15.43;7.72;;;;;;;19.80;100.00;101035.00;2103924;28;20135;-71
2023/05/10 05:39:25;;;;;;;20.25;8.00;;;;;;;19.71;100.00;101044.06;2104667;28;20520;-71
2023/05/10 05:40:46;;;;;;;23.15;8.38;;;;;;;19.72;100.00;101042.28;2103859;28;20040;-71
2023/05/10 05:42:09;;;;;;;18.85;7.53;;;;;;;19.82;100.00;101038.53;2103502;28;20044;-71
2023/05/10 05:43:32;;;;;;;17.30;7.57;;;;;;;20.01;100.00;101036.41;2107616;28;20058;-71
2023/05/10 05:44:54;;;;;;;20.77;8.75;;;;;;;20.08;100.00;101038.94;2112136;28;20059;-71
2023/05/10 05:46:16;;;;;;;15.27;7.40;;;;;;;20.16;100.00;101041.44;2103477;28;20036;-72
2023/05/10 05:47:38;;;;;;;21.65;8.23;;;;;;;20.21;100.00;101045.84;2109104;28;20040;-71
2023/05/10 05:49:00;;;;;;;22.23;8.45;;;;;;;20.20;100.00;101043.19;2107799;28;20043;-71
2023/05/10 05:50:22;;;;;;;22.38;8.77;;;;;;;20.19;100.00;101047.66;2111718;28;20048;-71
2023/05/10 05:51:45;;;;;;;19.25;8.65;;;;;;;20.19;100.00;101054.81;2110172;28;20044;-71
2023/05/10 05:53:06;;;;;;;18.48;8.68;;;;;;;20.18;100.00;101050.38;2112264;28;20043;-71
2023/05/10 05:54:32;;;;;;;22.35;8.93;;;;;;;20.20;100.00;101056.59;2110538;28;20047;-71
2023/05/10 05:55:55;;;;;;;20.77;8.98;;;;;;;20.20;100.00;101049.44;2104061;28;20051;-71
2023/05/10 05:57:18;;;;;;;20.15;8.80;;;;;;;20.19;100.00;101047.66;2097766;28;20044;-71
2023/05/10 05:58:40;;;;;;;16.48;8.45;;;;;;;20.20;100.00;101046.75;2105074;28;20649;-71
2023/05/10 06:00:03;;;;;;;17.85;7.97;;;;;;;20.18;100.00;101036.97;2103582;28;20052;-71
2023/05/10 06:01:34;;;;;;;19.33;8.68;;;;;;;20.11;100.00;101038.88;2104594;28;20135;-71
2023/05/10 06:02:57;;;;;;;19.25;8.70;;;;;;;20.09;100.00;101037.13;2095303;28;20056;-71
2023/05/10 06:04:19;;;;;;;17.10;8.60;;;;;;;20.09;100.00;101042.47;2096451;28;20040;-71
2023/05/10 06:05:42;;;;;;;19.80;8.60;;;;;;;20.14;100.00;101040.63;2106592;28;20051;-71
2023/05/10 06:07:04;;;;;;;22.70;8.77;;;;;;;20.23;100.00;101043.09;2103305;28;20040;-71
2023/05/10 06:08:27;;;;;;;19.45;8.00;;;;;;;20.37;100.00;101037.50;2105144;28;20032;-71
2023/05/10 06:09:50;;;;;;;17.33;7.40;;;;;;;20.49;100.00;101043.50;2108522;28;20040;-71
2023/05/10 06:11:13;;;;;;;18.88;7.78;;;;;;;20.52;100.00;101037.19;2112982;27;20102;-71
2023/05/10 06:12:36;;;;;;;17.60;8.38;;;;;;;20.67;100.00;101042.25;2120555;27;20035;-71
2023/05/10 06:14:00;;;;;;;18.08;7.25;;;;;;;20.91;100.00;101054.25;2103667;28;20048;-72
2023/05/10 06:15:22;;;;;;;17.70;7.15;;;;;;;21.17;100.00;101051.88;2111099;28;20415;-71
2023/05/10 06:16:45;;;;;;;21.17;7.43;;;;;;;21.45;100.00;101053.00;2108212;28;20059;-71
2023/05/10 06:18:07;;;;;;;14.75;6.63;;;;;;;21.55;100.00;101050.06;2107167;27;20105;-71
2023/05/10 06:19:29;;;;;;;14.00;6.55;;;;;;;21.76;100.00;101055.78;2112938;28;20092;-72